createdAt,value
2018-06-02T00:02:24.137Z,100438
2018-06-02T00:04:52.322Z,100441
2018-06-02T00:07:20.507Z,100438
2018-06-02T00:09:48.811Z,100427
2018-06-02T00:12:18.676Z,100425
2018-06-02T00:14:47.669Z,100426
2018-06-02T00:17:15.993Z,100431
2018-06-02T00:19:44.968Z,100436
2018-06-02T00:25:14.216Z,100438
2018-06-02T00:27:43.192Z,100430
2018-06-02T00:30:11.423Z,100415
2018-06-02T00:33:01.556Z,100420
2018-06-02T00:36:00.897Z,100409
2018-06-02T00:38:29.338Z,100411
2018-06-02T00:40:57.611Z,100402
2018-06-02T00:43:25.887Z,100402
2018-06-02T00:46:02.415Z,100400
2018-06-02T00:48:30.631Z,100405
2018-06-02T00:50:58.810Z,100404
2018-06-02T00:53:27.897Z,100402
2018-06-02T00:55:56.166Z,100400
2018-06-02T00:58:24.351Z,100398
2018-06-02T01:00:52.576Z,100393
2018-06-02T01:06:20.753Z,100399
2018-06-02T01:08:48.938Z,100396
2018-06-02T01:11:17.167Z,100401
2018-06-02T01:13:45.397Z,100386
2018-06-02T01:19:13.636Z,100381
2018-06-02T01:21:41.818Z,100386
2018-06-02T01:24:10.799Z,100384
2018-06-02T01:26:39.069Z,100383
2018-06-02T01:29:07.257Z,100380
2018-06-02T01:32:03.006Z,100385
2018-06-02T01:34:31.185Z,100378
2018-06-02T01:36:59.365Z,100380
2018-06-02T01:39:27.753Z,100380
2018-06-02T01:42:02.884Z,100375
2018-06-02T01:44:31.205Z,100372
2018-06-02T01:49:47.108Z,100353
2018-06-02T01:52:15.385Z,100368
2018-06-02T01:54:43.667Z,100380
2018-06-02T01:57:11.883Z,100377
2018-06-02T01:59:40.071Z,100372
2018-06-02T02:05:08.611Z,100374
2018-06-02T02:14:00.689Z,100374
2018-06-02T02:19:29.277Z,100371
2018-06-02T02:25:02.605Z,100374
2018-06-02T02:33:00.457Z,100383
2018-06-02T02:39:00.266Z,100376
2018-06-02T02:44:29.738Z,100371
2018-06-02T02:47:03.766Z,100383
2018-06-02T02:49:32.046Z,100379
2018-06-02T02:52:01.742Z,100382
2018-06-02T02:54:30.037Z,100386
2018-06-02T02:56:58.302Z,100384
2018-06-02T02:59:26.500Z,100385
2018-06-02T03:02:01.937Z,100383
2018-06-02T03:04:30.894Z,100384
2018-06-02T03:07:02.871Z,100380
2018-06-02T03:09:31.141Z,100381
2018-06-02T03:11:59.440Z,100390
2018-06-02T03:14:28.004Z,100388
2018-06-02T03:17:02.578Z,100390
2018-06-02T03:20:01.400Z,100395
2018-06-02T03:22:29.611Z,100397
2018-06-02T03:24:58.553Z,100398
2018-06-02T03:27:26.779Z,100403
2018-06-02T03:29:55.763Z,100404
2018-06-02T03:32:24.030Z,100409
2018-06-02T03:35:02.150Z,100408
2018-06-02T03:37:31.136Z,100411
2018-06-02T03:39:59.462Z,100409
2018-06-02T03:42:27.685Z,100405
2018-06-02T03:44:55.964Z,100405
2018-06-02T03:50:08.377Z,100399
2018-06-02T03:52:36.664Z,100399
2018-06-02T03:55:04.943Z,100402
2018-06-02T03:57:33.276Z,100405
2018-06-02T04:00:01.469Z,100402
2018-06-02T04:02:29.664Z,100403
2018-06-02T04:05:03.886Z,100411
2018-06-02T04:07:32.879Z,100408
2018-06-02T04:10:01.857Z,100404
2018-06-02T04:12:30.138Z,100411
2018-06-02T04:14:58.331Z,100412
2018-06-02T04:20:27.318Z,100428
2018-06-02T04:22:55.513Z,100424
2018-06-02T04:25:24.463Z,100421
2018-06-02T04:27:52.679Z,100427
2018-06-02T04:33:23.023Z,100420
2018-06-02T04:35:51.998Z,100417
2018-06-02T04:38:20.279Z,100412
2018-06-02T04:40:48.554Z,100408
2018-06-02T04:43:16.826Z,100407
2018-06-02T04:46:01.195Z,100412
2018-06-02T04:48:29.464Z,100410
2018-06-02T04:50:58.451Z,100415
2018-06-02T04:53:26.733Z,100417
2018-06-02T04:55:55.718Z,100410
2018-06-02T05:01:24.631Z,100412
2018-06-02T05:03:52.895Z,100408
2018-06-02T05:06:21.178Z,100410
2018-06-02T05:08:49.460Z,100413
2018-06-02T05:11:17.934Z,100419
2018-06-02T05:14:02.888Z,100416
2018-06-02T05:17:00.933Z,100426
2018-06-02T05:19:29.250Z,100425
2018-06-02T05:21:57.537Z,100421
2018-06-02T05:24:26.582Z,100417
2018-06-02T05:27:02.282Z,100419
2018-06-02T05:29:31.327Z,100419
2018-06-02T05:31:59.510Z,100417
2018-06-02T05:34:27.716Z,100419
2018-06-02T05:36:55.907Z,100414
2018-06-02T05:39:24.868Z,100415
2018-06-02T05:41:53.220Z,100412
2018-06-02T05:44:21.432Z,100408
2018-06-02T05:46:49.786Z,100408
2018-06-02T05:49:18.146Z,100416
2018-06-02T05:51:46.336Z,100409
2018-06-02T05:56:58.618Z,100420
2018-06-02T05:59:26.798Z,100415
2018-06-02T06:01:54.983Z,100416
2018-06-02T06:04:23.242Z,100409
2018-06-02T06:07:01.336Z,100410
2018-06-02T06:10:00.160Z,100408
2018-06-02T06:12:28.437Z,100410
2018-06-02T06:14:56.621Z,100421
2018-06-02T06:17:24.841Z,100419
2018-06-02T06:19:53.811Z,100413
2018-06-02T06:22:22.081Z,100418
2018-06-02T06:24:50.285Z,100415
2018-06-02T06:27:19.258Z,100414
2018-06-02T06:29:47.529Z,100416
2018-06-02T06:32:15.769Z,100416
2018-06-02T06:34:43.946Z,100423
2018-06-02T06:37:12.121Z,100418
2018-06-02T06:39:40.326Z,100416
2018-06-02T06:42:08.513Z,100419
2018-06-02T06:44:37.539Z,100417
2018-06-02T06:47:05.971Z,100408
2018-06-02T06:49:34.155Z,100404
2018-06-02T06:52:02.427Z,100406
2018-06-02T06:54:30.757Z,100409
2018-06-02T06:56:58.974Z,100412
2018-06-02T06:59:27.150Z,100411
2018-06-02T07:01:56.206Z,100414
2018-06-02T07:07:25.421Z,100422
2018-06-02T07:09:53.703Z,100419
2018-06-02T07:12:22.093Z,100420
2018-06-02T07:14:50.310Z,100415
2018-06-02T07:17:19.262Z,100422
2018-06-02T07:20:01.791Z,100420
2018-06-02T07:22:30.067Z,100425
2018-06-02T07:24:59.789Z,100427
2018-06-02T07:27:28.893Z,100422
2018-06-02T07:29:57.845Z,100426
2018-06-02T07:35:27.186Z,100433
2018-06-02T07:37:55.376Z,100422
2018-06-02T07:40:24.356Z,100436
2018-06-02T07:42:52.575Z,100430
2018-06-02T07:48:21.538Z,100430
2018-06-02T07:51:02.848Z,100439
2018-06-02T07:54:00.717Z,100432
2018-06-02T08:00:00.452Z,100428
2018-06-02T08:09:00.830Z,100425
2018-06-02T08:11:29.010Z,100427
2018-06-02T08:13:57.343Z,100424
2018-06-02T08:25:17.625Z,100429
2018-06-02T08:28:03.090Z,100421
2018-06-02T08:31:00.270Z,100424
2018-06-02T08:33:28.486Z,100430
2018-06-02T08:36:02.791Z,100425
2018-06-02T08:39:01.504Z,100430
2018-06-02T08:45:00.238Z,100431
2018-06-02T08:54:00.706Z,100426
2018-06-02T09:00:00.756Z,100430
2018-06-02T09:12:01.306Z,100432
2018-06-02T09:14:29.677Z,100424
2018-06-02T09:17:03.566Z,100430
2018-06-02T09:20:02.110Z,100430
2018-06-02T09:22:31.088Z,100427
2018-06-02T09:28:02.653Z,100429
2018-06-02T09:31:01.176Z,100421
2018-06-02T09:37:00.894Z,100429
2018-06-02T09:43:00.835Z,100434
2018-06-02T09:52:00.404Z,100427
2018-06-02T09:58:00.767Z,100428
2018-06-02T10:07:00.580Z,100419
2018-06-02T10:09:28.775Z,100418
2018-06-02T10:11:56.952Z,100417
2018-06-02T10:14:25.167Z,100413
2018-06-02T10:16:53.447Z,100416
2018-06-02T10:19:21.635Z,100415
2018-06-02T10:22:03.886Z,100419
2018-06-02T10:24:32.087Z,100416
2018-06-02T10:27:00.279Z,100412
2018-06-02T10:29:29.479Z,100411
2018-06-02T10:31:58.430Z,100409
2018-06-02T10:34:26.613Z,100407
2018-06-02T10:36:54.911Z,100400
2018-06-02T10:39:23.456Z,100407
2018-06-02T10:41:51.638Z,100396
2018-06-02T10:44:19.989Z,100402
2018-06-02T10:46:48.921Z,100401
2018-06-02T10:49:17.098Z,100397
2018-06-02T10:51:45.382Z,100402
2018-06-02T10:54:13.562Z,100401
2018-06-02T10:56:41.744Z,100402
2018-06-02T10:59:10.821Z,100408
2018-06-02T11:01:39.136Z,100406
2018-06-02T11:04:08.099Z,100401
2018-06-02T11:06:36.374Z,100398
2018-06-02T11:09:04.620Z,100398
2018-06-02T11:11:32.781Z,100392
2018-06-02T11:14:01.093Z,100386
2018-06-02T11:19:30.158Z,100389
2018-06-02T11:21:58.329Z,100385
2018-06-02T11:24:26.567Z,100380
2018-06-02T11:26:54.852Z,100379
2018-06-02T11:29:23.850Z,100379
2018-06-02T11:31:53.531Z,100377
2018-06-02T11:34:21.806Z,100365
2018-06-02T11:36:50.085Z,100365
2018-06-02T11:39:18.285Z,100364
2018-06-02T11:41:47.257Z,100359
2018-06-02T11:47:16.015Z,100348
2018-06-02T11:49:44.198Z,100345
2018-06-02T11:52:12.762Z,100343
2018-06-02T11:54:40.975Z,100338
2018-06-02T11:57:09.163Z,100330
2018-06-02T11:59:37.354Z,100330
2018-06-02T12:02:06.942Z,100322
2018-06-02T12:04:35.116Z,100316
2018-06-02T12:07:03.301Z,100314
2018-06-02T12:09:31.565Z,100312
2018-06-02T12:12:03.577Z,100312
2018-06-02T12:14:31.797Z,100303
2018-06-02T12:16:59.979Z,100302
2018-06-02T12:19:28.268Z,100297
2018-06-02T12:21:57.262Z,100292
2018-06-02T12:24:26.237Z,100294
2018-06-02T12:28:05.801Z,100284
2018-06-02T12:30:34.778Z,100281
2018-06-02T12:33:02.998Z,100284
2018-06-02T12:35:31.183Z,100288
2018-06-02T12:37:59.366Z,100284
2018-06-02T12:43:27.386Z,100276
2018-06-02T12:45:55.666Z,100273
2018-06-02T12:48:23.910Z,100270
2018-06-02T12:50:52.122Z,100264
2018-06-02T12:53:20.402Z,100262
2018-06-02T12:55:49.435Z,100251
2018-06-02T12:58:17.667Z,100250
2018-06-02T13:00:45.943Z,100249
2018-06-02T13:03:14.227Z,100248
2018-06-02T13:05:43.209Z,100244
2018-06-02T13:11:12.321Z,100249
2018-06-02T13:13:40.503Z,100248
2018-06-02T13:16:08.774Z,100257
2018-06-02T13:18:37.004Z,100259
2018-06-02T13:21:05.191Z,100257
2018-06-02T13:26:29.921Z,100269
2018-06-02T13:28:58.614Z,100281
2018-06-02T13:31:26.799Z,100279
2018-06-02T13:33:55.109Z,100282
2018-06-02T13:36:23.294Z,100278
2018-06-02T13:38:51.474Z,100286
2018-06-02T13:41:19.686Z,100293
2018-06-02T13:43:47.866Z,100302
2018-06-02T13:46:16.043Z,100304
2018-06-02T13:48:44.258Z,100317
2018-06-02T13:51:12.445Z,100332
2018-06-02T13:53:40.629Z,100337
2018-06-02T13:56:09.242Z,100337
2018-06-02T13:58:38.925Z,100326
2018-06-02T14:01:07.107Z,100315
2018-06-02T14:03:35.397Z,100316
2018-06-02T14:06:03.669Z,100318
2018-06-02T14:08:31.960Z,100313
2018-06-02T14:11:00.192Z,100310
2018-06-02T14:13:28.384Z,100318
2018-06-02T14:15:56.573Z,100311
2018-06-02T14:18:24.787Z,100305
2018-06-02T14:20:53.846Z,100298
2018-06-02T14:23:22.106Z,100299
2018-06-02T14:25:50.425Z,100302
2018-06-02T14:28:19.395Z,100300
2018-06-02T14:30:49.105Z,100297
2018-06-02T14:36:19.756Z,100311
2018-06-02T14:38:48.047Z,100309
2018-06-02T14:41:16.998Z,100300
2018-06-02T14:43:45.328Z,100302
2018-06-02T14:46:13.521Z,100301
2018-06-02T14:48:41.714Z,100297
2018-06-02T14:51:10.023Z,100293
2018-06-02T14:53:38.298Z,100290
2018-06-02T14:56:06.490Z,100299
2018-06-02T14:58:35.466Z,100289
2018-06-02T15:01:03.653Z,100283
2018-06-02T15:03:32.617Z,100276
2018-06-02T15:06:00.816Z,100269
2018-06-02T15:08:29.803Z,100276
2018-06-02T15:10:58.810Z,100263
2018-06-02T15:16:29.359Z,100255
2018-06-02T15:18:58.336Z,100253
2018-06-02T15:21:27.276Z,100246
2018-06-02T15:23:55.504Z,100242
2018-06-02T15:26:24.491Z,100248
2018-06-02T15:28:52.675Z,100237
2018-06-02T15:31:21.727Z,100243
2018-06-02T15:33:50.034Z,100243
2018-06-02T15:36:18.220Z,100236
2018-06-02T15:38:47.199Z,100252
2018-06-02T15:41:15.634Z,100235
2018-06-02T15:44:03.031Z,100237
2018-06-02T15:46:31.223Z,100239
2018-06-02T15:48:59.459Z,100228
2018-06-02T15:51:28.451Z,100219
2018-06-02T15:53:57.501Z,100220
2018-06-02T15:56:25.672Z,100219
2018-06-02T15:59:01.979Z,100211
2018-06-02T16:01:33.838Z,100220
2018-06-02T16:04:02.626Z,100228
2018-06-02T16:06:30.807Z,100239
2018-06-02T16:09:02.975Z,100249
2018-06-02T16:12:00.610Z,100252
2018-06-02T16:14:28.875Z,100254
2018-06-02T16:17:03.052Z,100253
2018-06-02T16:20:02.056Z,100256
2018-06-02T16:23:01.090Z,100257
2018-06-02T16:28:29.332Z,100270
2018-06-02T16:31:04.646Z,100281
2018-06-02T16:34:01.425Z,100280
2018-06-02T16:48:30.358Z,100287
2018-06-02T16:51:02.286Z,100282
2018-06-02T16:54:01.070Z,100286
2018-06-02T16:56:29.281Z,100294
2018-06-02T16:59:03.882Z,100300
2018-06-02T17:02:00.668Z,100301
2018-06-02T17:04:29.651Z,100307
2018-06-02T17:07:04.286Z,100305
2018-06-02T17:10:01.310Z,100311
2018-06-02T17:18:29.398Z,100314
2018-06-02T17:21:03.758Z,100311
2018-06-02T17:24:02.531Z,100320
2018-06-02T17:26:30.813Z,100320
2018-06-02T17:29:02.690Z,100330
2018-06-02T17:32:02.410Z,100324
2018-06-02T17:34:31.384Z,100326
2018-06-02T17:37:03.409Z,100330
2018-06-02T17:40:01.792Z,100325
2018-06-02T17:42:29.976Z,100330
2018-06-02T17:45:04.611Z,100325
2018-06-02T17:48:01.281Z,100333
2018-06-02T17:50:30.375Z,100330
2018-06-02T17:53:02.229Z,100330
2018-06-02T17:56:00.853Z,100325
2018-06-02T17:58:29.030Z,100330
2018-06-02T18:01:03.406Z,100338
2018-06-02T18:04:02.692Z,100347
2018-06-02T18:06:30.902Z,100339
2018-06-02T18:09:03.055Z,100344
2018-06-02T18:12:01.386Z,100347
2018-06-02T18:14:29.606Z,100348
2018-06-02T18:16:57.788Z,100350
2018-06-02T18:19:26.770Z,100350
2018-06-02T18:21:54.959Z,100351
2018-06-02T18:27:24.589Z,100353
2018-06-02T18:30:04.361Z,100341
2018-06-02T18:33:02.349Z,100345
2018-06-02T18:35:30.630Z,100340
2018-06-02T18:40:59.377Z,100325
2018-06-02T18:58:48.426Z,100322
2018-06-02T19:01:16.614Z,100316
2018-06-02T19:04:04.245Z,100324
2018-06-02T19:07:01.641Z,100335
2018-06-02T19:18:30.192Z,100344
2018-06-02T19:20:58.415Z,100346
2018-06-02T19:23:26.684Z,100345
2018-06-02T19:25:54.890Z,100339
2018-06-02T19:31:24.346Z,100342
2018-06-02T19:33:52.531Z,100344
2018-06-02T19:36:20.710Z,100347
2018-06-02T19:39:02.119Z,100348
2018-06-02T19:41:30.451Z,100356
2018-06-02T19:44:04.977Z,100354
2018-06-02T19:47:00.920Z,100362
2018-06-02T19:56:00.845Z,100387
2018-06-02T19:58:29.080Z,100393
2018-06-02T20:00:58.038Z,100395
2018-06-02T20:03:26.274Z,100397
2018-06-02T20:09:00.021Z,100393.00
2018-06-02T20:11:29.187Z,100397.00
2018-06-02T20:13:58.366Z,100409.00
2018-06-02T20:16:27.809Z,100411.00
2018-06-02T20:18:56.997Z,100415.00
2018-06-02T20:21:26.174Z,100404.00
2018-06-02T20:23:55.380Z,100411.00
2018-06-02T20:26:24.559Z,100406.00
2018-06-02T20:28:53.734Z,100403.00
2018-06-02T20:31:24.848Z,100408.00
2018-06-02T20:33:54.026Z,100408.00
2018-06-02T20:36:23.285Z,100414.00
2018-06-02T20:39:05.849Z,100415.00
2018-06-02T20:41:35.250Z,100419.00
2018-06-02T20:44:04.453Z,100425.00
2018-06-02T20:46:33.614Z,100421.00
2018-06-02T20:49:03.962Z,100421.00
2018-06-02T20:54:33.658Z,100421.00
2018-06-02T20:59:47.521Z,100437.00
2018-06-02T21:05:17.179Z,100448.00
2018-06-02T21:07:46.424Z,100447.00
2018-06-02T21:10:15.576Z,100455.00
2018-06-02T21:13:03.624Z,100443.00
2018-06-02T21:15:32.809Z,100452.00
2018-06-02T21:18:04.115Z,100448.00
2018-06-02T21:20:33.384Z,100452.00
2018-06-02T21:23:03.696Z,100460.00
2018-06-02T21:25:32.870Z,100458.00
2018-06-02T21:28:02.028Z,100458.00
2018-06-02T21:30:31.224Z,100458.00
2018-06-02T21:33:04.069Z,100454.00
2018-06-02T21:36:02.750Z,100464.00
2018-06-02T21:41:31.956Z,100459.00
2018-06-02T21:44:01.145Z,100465.00
2018-06-02T21:46:30.388Z,100462.00
2018-06-02T21:48:59.669Z,100467.00
2018-06-02T21:51:29.797Z,100467.00
2018-06-02T21:53:59.053Z,100466.00
2018-06-02T21:56:28.338Z,100481.00
2018-06-02T21:58:57.506Z,100466.00
2018-06-02T22:01:26.681Z,100468.00
2018-06-02T22:04:03.563Z,100472.00
2018-06-02T22:06:32.763Z,100473.00
2018-06-02T22:09:02.049Z,100471.00
2018-06-02T22:11:31.307Z,100472.00
2018-06-02T22:15:40.095Z,100475.00
2018-06-02T22:18:09.311Z,100482.00
2018-06-02T22:20:38.458Z,100472.00
2018-06-02T22:23:07.642Z,100475.00
2018-06-02T22:25:36.875Z,100479.00
2018-06-02T22:28:06.067Z,100472.00
2018-06-02T22:30:35.329Z,100470.00
2018-06-02T22:33:04.845Z,100472.00
2018-06-02T22:35:34.102Z,100477.00
2018-06-02T22:41:00.947Z,100474.00
2018-06-02T22:43:30.187Z,100468.00
2018-06-02T22:45:59.345Z,100472.00
2018-06-02T22:48:28.625Z,100468.00
2018-06-02T22:51:03.654Z,100460.00
2018-06-02T22:53:32.911Z,100460.00
2018-06-02T22:57:40.477Z,100460.00
2018-06-02T23:00:10.897Z,100466.00
2018-06-02T23:03:03.237Z,100455.00
2018-06-02T23:05:32.458Z,100466.00
2018-06-02T23:08:03.646Z,100463.00
2018-06-02T23:10:32.928Z,100463.00
2018-06-02T23:13:03.718Z,100461.00
2018-06-02T23:15:32.895Z,100455.00
2018-06-02T23:18:02.092Z,100464.00
2018-06-02T23:20:31.254Z,100470.00
2018-06-02T23:23:04.321Z,100465.00
2018-06-02T23:25:33.538Z,100473.00
2018-06-02T23:28:02.705Z,100485.00
2018-06-02T23:30:31.915Z,100486.00
2018-06-02T23:33:01.096Z,100485.00
2018-06-02T23:35:30.448Z,100481.00
2018-06-02T23:41:00.268Z,100479.00
2018-06-02T23:43:29.484Z,100477.00
2018-06-02T23:45:58.694Z,100476.00
2018-06-02T23:48:27.902Z,100484.00
2018-06-02T23:51:03.408Z,100484.00
2018-06-02T23:53:32.599Z,100477.00
2018-06-02T23:56:01.764Z,100482.00
2018-06-02T23:58:30.987Z,100482.00
